createdAt,value
2022-10-07T00:03:50.651Z,75.22
2022-10-07T00:08:55.549Z,75.18
2022-10-07T00:14:16.972Z,75.65
2022-10-07T00:19:24.318Z,75.27
2022-10-07T00:24:30.659Z,75.18
2022-10-07T00:29:44.924Z,75.24
2022-10-07T00:34:58.073Z,75.42
2022-10-07T00:40:07.923Z,75.80
2022-10-07T00:45:16.970Z,76.17
2022-10-07T00:50:31.871Z,75.53
2022-10-07T00:55:35.441Z,75.53
2022-10-07T01:00:41.015Z,75.81
2022-10-07T01:05:44.376Z,75.90
2022-10-07T01:11:00.257Z,75.78
2022-10-07T01:16:14.161Z,76.22
2022-10-07T01:21:32.321Z,75.83
2022-10-07T01:26:49.990Z,76.05
2022-10-07T01:32:00.227Z,76.06
2022-10-07T01:37:06.190Z,76.38
2022-10-07T01:42:11.846Z,76.37
2022-10-07T01:47:15.263Z,76.01
2022-10-07T01:52:33.122Z,75.32
2022-10-07T01:57:44.513Z,75.56
2022-10-07T02:03:14.725Z,75.28
2022-10-07T02:08:29.602Z,75.06
2022-10-07T02:13:39.312Z,74.44
2022-10-07T02:18:48.475Z,74.77
2022-10-07T02:23:54.303Z,74.82
2022-10-07T02:29:02.174Z,74.94
2022-10-07T02:34:08.987Z,74.81
2022-10-07T02:39:14.133Z,74.88
2022-10-07T02:44:26.047Z,74.84
2022-10-07T02:49:32.228Z,75.43
2022-10-07T02:54:39.472Z,75.06
2022-10-07T02:59:45.800Z,75.15
2022-10-07T03:04:49.849Z,74.30
2022-10-07T03:09:53.606Z,73.98
2022-10-07T03:14:58.526Z,73.52
2022-10-07T03:20:02.663Z,73.12
2022-10-07T03:25:07.472Z,73.01
2022-10-07T03:30:14.035Z,72.95
2022-10-07T03:35:17.791Z,72.75
2022-10-07T03:40:21.449Z,73.22
2022-10-07T03:45:26.289Z,72.91
2022-10-07T03:50:29.631Z,72.95
2022-10-07T03:55:32.965Z,72.92
2022-10-07T04:00:39.020Z,73.01
2022-10-07T04:05:42.392Z,73.00
2022-10-07T04:10:45.646Z,72.70
2022-10-07T04:15:50.772Z,72.62
2022-10-07T04:20:54.149Z,71.40
2022-10-07T04:25:57.538Z,70.48
2022-10-07T04:31:05.504Z,69.50
2022-10-07T04:36:11.684Z,68.94
2022-10-07T04:41:15.008Z,68.05
2022-10-07T04:46:19.786Z,67.38
2022-10-07T04:51:23.434Z,66.45
2022-10-07T04:56:28.421Z,65.94
2022-10-07T05:01:33.336Z,66.13
2022-10-07T05:06:36.658Z,66.20
2022-10-07T05:11:40.050Z,66.11
2022-10-07T05:16:44.774Z,65.51
2022-10-07T05:21:47.989Z,64.43
2022-10-07T05:26:52.527Z,58.04
2022-10-07T05:32:00.890Z,60.52
2022-10-07T05:37:07.181Z,61.97
2022-10-07T05:42:13.795Z,61.58
2022-10-07T05:47:19.025Z,61.90
2022-10-07T05:52:22.347Z,54.20
2022-10-07T05:57:25.841Z,47.90
2022-10-07T06:02:30.624Z,48.48
2022-10-07T06:07:34.073Z,45.99
2022-10-07T06:12:56.753Z,40.90
2022-10-07T06:18:01.759Z,40.94
2022-10-07T06:23:07.055Z,44.46
2022-10-07T06:28:10.464Z,46.71
2022-10-07T06:33:15.182Z,42.74
2022-10-07T06:38:18.882Z,36.95
2022-10-07T06:43:22.184Z,39.15
2022-10-07T06:48:28.254Z,42.87
2022-10-07T06:53:32.482Z,45.37
2022-10-07T06:58:37.618Z,47.80
2022-10-07T07:03:42.500Z,49.21
2022-10-07T07:08:46.366Z,49.72
2022-10-07T07:13:49.853Z,49.88
2022-10-07T07:18:55.772Z,42.25
2022-10-07T07:23:59.780Z,37.11
2022-10-07T07:29:06.210Z,30.06
2022-10-07T07:34:14.442Z,24.97
2022-10-07T07:39:19.879Z,21.24
2022-10-07T07:44:23.530Z,21.13
2022-10-07T07:49:32.557Z,18.56
2022-10-07T07:54:37.670Z,21.90
2022-10-07T07:59:41.905Z,25.07
2022-10-07T08:04:46.650Z,29.10
2022-10-07T08:09:50.540Z,32.44
2022-10-07T08:14:53.640Z,35.22
2022-10-07T08:19:59.047Z,36.67
2022-10-07T08:25:02.661Z,36.85
2022-10-07T08:30:09.744Z,37.00
2022-10-07T08:35:15.274Z,37.98
2022-10-07T08:40:19.985Z,38.24
2022-10-07T08:45:32.646Z,38.72
2022-10-07T08:50:52.506Z,39.47
2022-10-07T08:55:58.612Z,41.15
2022-10-07T09:01:13.631Z,43.17
2022-10-07T09:06:28.261Z,43.79
2022-10-07T09:11:33.526Z,44.70
2022-10-07T09:16:44.114Z,42.92
2022-10-07T09:21:51.893Z,43.17
2022-10-07T09:26:59.026Z,42.96
2022-10-07T09:32:03.130Z,42.23
2022-10-07T09:37:29.426Z,42.86
2022-10-07T09:42:36.651Z,42.70
2022-10-07T09:47:43.232Z,43.12
2022-10-07T09:52:57.026Z,44.06
2022-10-07T09:58:02.474Z,44.49
2022-10-07T10:03:07.758Z,44.66
2022-10-07T10:08:26.152Z,44.63
2022-10-07T10:13:33.576Z,44.58
2022-10-07T10:18:40.317Z,44.22
2022-10-07T10:23:47.378Z,43.93
2022-10-07T10:29:01.068Z,44.58
2022-10-07T10:34:17.366Z,45.40
2022-10-07T10:39:42.937Z,46.00
2022-10-07T10:44:56.180Z,45.89
2022-10-07T10:50:15.809Z,44.59
2022-10-07T10:55:51.745Z,44.92
2022-10-07T11:01:07.581Z,44.71
2022-10-07T11:06:17.827Z,44.50
2022-10-07T11:11:25.169Z,43.80
2022-10-07T11:16:34.005Z,43.89
2022-10-07T11:21:42.390Z,44.83
2022-10-07T11:26:53.474Z,44.62
2022-10-07T11:32:03.366Z,45.11
2022-10-07T11:37:16.760Z,45.05
2022-10-07T11:42:25.801Z,45.05
2022-10-07T11:47:37.126Z,45.10
2022-10-07T11:52:43.070Z,45.69
2022-10-07T11:57:55.077Z,45.36
2022-10-07T12:02:58.806Z,45.55
2022-10-07T12:08:05.347Z,44.71
2022-10-07T12:13:39.163Z,44.61
2022-10-07T12:18:43.665Z,45.54
2022-10-07T12:23:46.784Z,45.16
2022-10-07T12:28:54.471Z,45.33
2022-10-07T12:33:59.784Z,45.43
2022-10-07T12:39:36.477Z,45.92
2022-10-07T12:44:52.948Z,45.62
2022-10-07T12:50:02.194Z,45.56
2022-10-07T12:55:11.087Z,46.17
2022-10-07T13:00:18.357Z,45.60
2022-10-07T13:06:04.238Z,45.56
2022-10-07T13:11:38.695Z,45.69
2022-10-07T13:16:51.138Z,46.37
2022-10-07T13:22:03.562Z,46.89
2022-10-07T13:27:10.431Z,47.32
2022-10-07T13:32:18.326Z,47.79
2022-10-07T13:37:28.367Z,48.61
2022-10-07T13:42:31.776Z,49.36
2022-10-07T13:47:37.405Z,49.77
2022-10-07T13:52:44.738Z,50.04
2022-10-07T13:57:50.967Z,49.87
2022-10-07T14:02:56.296Z,50.70
2022-10-07T14:08:02.281Z,50.36
2022-10-07T14:13:09.865Z,50.83
2022-10-07T14:18:16.897Z,51.18
2022-10-07T14:23:28.372Z,52.42
2022-10-07T14:28:34.694Z,52.93
2022-10-07T14:34:03.504Z,53.41
2022-10-07T14:39:24.137Z,52.98
2022-10-07T14:44:27.753Z,53.59
2022-10-07T14:49:33.629Z,53.87
2022-10-07T14:54:37.034Z,54.57
2022-10-07T14:59:41.500Z,55.33
2022-10-07T15:04:46.675Z,55.96
2022-10-07T15:09:50.857Z,55.91
2022-10-07T15:14:54.955Z,56.61
2022-10-07T15:20:00.471Z,56.98
2022-10-07T15:25:04.547Z,57.74
2022-10-07T15:30:09.931Z,57.81
2022-10-07T15:35:15.856Z,58.55
2022-10-07T15:40:20.149Z,58.34
2022-10-07T15:45:25.686Z,58.61
2022-10-07T15:50:33.537Z,58.55
2022-10-07T15:55:37.686Z,58.19
2022-10-07T16:00:41.833Z,58.29
2022-10-07T16:05:47.323Z,58.75
2022-10-07T16:10:51.520Z,58.62
2022-10-07T16:15:59.407Z,59.46
2022-10-07T16:21:07.004Z,59.51
2022-10-07T16:26:12.909Z,59.97
2022-10-07T16:31:17.130Z,60.82
2022-10-07T16:36:24.311Z,61.22
2022-10-07T16:41:28.469Z,61.61
2022-10-07T16:46:33.834Z,61.98
2022-10-07T16:51:39.867Z,61.97
2022-10-07T16:56:47.322Z,62.30
2022-10-07T17:01:52.771Z,62.45
2022-10-07T17:06:59.104Z,62.67
2022-10-07T17:12:03.945Z,63.11
2022-10-07T17:17:08.798Z,63.81
2022-10-07T17:22:14.335Z,63.84
2022-10-07T17:27:19.440Z,63.76
2022-10-07T17:32:22.902Z,63.86
2022-10-07T17:37:28.626Z,64.54
2022-10-07T17:42:32.106Z,64.18
2022-10-07T17:47:36.161Z,64.61
2022-10-07T17:52:41.772Z,64.73
2022-10-07T17:57:47.573Z,65.16
2022-10-07T18:02:51.902Z,65.16
2022-10-07T18:07:59.123Z,66.11
2022-10-07T18:13:20.154Z,65.81
2022-10-07T18:18:24.251Z,66.26
2022-10-07T18:23:30.408Z,66.60
2022-10-07T18:28:35.318Z,66.53
2022-10-07T18:33:39.385Z,66.99
2022-10-07T18:38:46.497Z,67.28
2022-10-07T18:43:50.348Z,67.34
2022-10-07T18:48:55.068Z,67.18
2022-10-07T18:53:59.783Z,67.63
2022-10-07T18:59:03.597Z,66.86
2022-10-07T19:04:08.923Z,67.34
2022-10-07T19:09:17.139Z,67.60
2022-10-07T19:14:20.583Z,67.56
2022-10-07T19:19:26.534Z,67.75
2022-10-07T19:24:45.056Z,67.93
2022-10-07T19:29:49.669Z,68.21
2022-10-07T19:34:53.993Z,68.50
2022-10-07T19:39:59.422Z,68.58
2022-10-07T19:45:03.127Z,68.79
2022-10-07T19:50:08.538Z,68.48
2022-10-07T19:55:14.147Z,68.31
2022-10-07T20:00:18.454Z,68.47
2022-10-07T20:05:22.536Z,68.71
2022-10-07T20:10:29.066Z,68.96
2022-10-07T20:15:33.310Z,69.15
2022-10-07T20:20:37.578Z,69.80
2022-10-07T20:25:43.017Z,69.68
2022-10-07T20:30:47.116Z,69.56
2022-10-07T20:35:53.576Z,69.75
2022-10-07T20:41:15.807Z,69.99
2022-10-07T20:46:20.137Z,70.38
2022-10-07T20:51:24.732Z,70.93
2022-10-07T20:56:30.239Z,70.33
2022-10-07T21:01:34.337Z,70.86
2022-10-07T21:06:38.401Z,70.57
2022-10-07T21:11:43.891Z,70.84
2022-10-07T21:16:50.202Z,70.86
2022-10-07T21:21:54.391Z,71.43
2022-10-07T21:26:59.907Z,71.44
2022-10-07T21:32:04.499Z,71.68
2022-10-07T21:37:08.540Z,70.97
2022-10-07T21:42:13.337Z,72.02
2022-10-07T21:47:17.297Z,71.75
2022-10-07T21:52:20.690Z,71.95
2022-10-07T21:57:26.210Z,71.74
2022-10-07T22:02:29.978Z,71.83
2022-10-07T22:07:51.898Z,72.59
2022-10-07T22:12:56.581Z,72.33
2022-10-07T22:18:00.561Z,71.96
2022-10-07T22:23:03.854Z,72.46
2022-10-07T22:28:09.337Z,72.10
2022-10-07T22:33:15.278Z,71.47
2022-10-07T22:38:20.340Z,71.71
2022-10-07T22:43:24.767Z,70.99
2022-10-07T22:48:29.328Z,70.89
2022-10-07T22:53:32.686Z,71.63
2022-10-07T22:58:39.858Z,72.04
2022-10-07T23:03:44.340Z,72.17
2022-10-07T23:08:49.969Z,72.11
2022-10-07T23:13:55.614Z,71.83
2022-10-07T23:19:00.726Z,72.72
2022-10-07T23:24:07.629Z,72.15
2022-10-07T23:29:14.415Z,72.86
2022-10-07T23:34:18.723Z,72.60
2022-10-07T23:39:23.099Z,71.99
2022-10-07T23:44:27.795Z,71.94
2022-10-07T23:49:31.906Z,71.89
2022-10-07T23:54:35.254Z,71.74
2022-10-07T23:59:40.662Z,71.43
